sensor_id;sensor_type;location;lat;lon;timestamp;P1;durP1;ratioP1;P2;durP2;ratioP2
15412;SDS011;7805;49.554;7.632;2022-09-01T00:02:13;6.90;;;6.20;;
15412;SDS011;7805;49.554;7.632;2022-09-01T00:04:40;7.27;;;6.27;;
15412;SDS011;7805;49.554;7.632;2022-09-01T00:07:08;6.93;;;6.33;;
15412;SDS011;7805;49.554;7.632;2022-09-01T00:09:34;7.10;;;6.40;;
15412;SDS011;7805;49.554;7.632;2022-09-01T00:12:01;8.60;;;6.97;;
15412;SDS011;7805;49.554;7.632;2022-09-01T00:14:29;8.03;;;7.33;;
15412;SDS011;7805;49.554;7.632;2022-09-01T00:17:01;7.03;;;6.33;;
15412;SDS011;7805;49.554;7.632;2022-09-01T00:19:29;6.40;;;5.90;;
15412;SDS011;7805;49.554;7.632;2022-09-01T00:21:55;7.97;;;7.23;;
15412;SDS011;7805;49.554;7.632;2022-09-01T00:24:21;6.73;;;6.20;;
15412;SDS011;7805;49.554;7.632;2022-09-01T00:26:47;7.47;;;6.87;;
15412;SDS011;7805;49.554;7.632;2022-09-01T00:29:13;8.20;;;6.70;;
15412;SDS011;7805;49.554;7.632;2022-09-01T00:31:39;7.67;;;6.33;;
15412;SDS011;7805;49.554;7.632;2022-09-01T00:34:05;6.63;;;6.03;;
15412;SDS011;7805;49.554;7.632;2022-09-01T00:36:31;7.63;;;6.93;;
15412;SDS011;7805;49.554;7.632;2022-09-01T00:38:57;7.50;;;6.90;;
15412;SDS011;7805;49.554;7.632;2022-09-01T00:41:25;6.53;;;6.03;;
15412;SDS011;7805;49.554;7.632;2022-09-01T00:43:54;7.20;;;6.50;;
15412;SDS011;7805;49.554;7.632;2022-09-01T00:46:27;6.33;;;5.83;;
15412;SDS011;7805;49.554;7.632;2022-09-01T00:48:59;8.27;;;7.57;;
15412;SDS011;7805;49.554;7.632;2022-09-01T00:51:46;7.07;;;6.37;;
15412;SDS011;7805;49.554;7.632;2022-09-01T00:54:17;7.60;;;6.90;;
15412;SDS011;7805;49.554;7.632;2022-09-01T00:56:45;8.27;;;6.90;;
15412;SDS011;7805;49.554;7.632;2022-09-01T00:59:12;7.00;;;6.40;;
15412;SDS011;7805;49.554;7.632;2022-09-01T01:01:40;6.73;;;6.07;;
15412;SDS011;7805;49.554;7.632;2022-09-01T01:04:06;6.30;;;5.70;;
15412;SDS011;7805;49.554;7.632;2022-09-01T01:06:47;6.60;;;6.03;;
15412;SDS011;7805;49.554;7.632;2022-09-01T01:09:22;7.27;;;6.50;;
15412;SDS011;7805;49.554;7.632;2022-09-01T01:11:49;6.80;;;6.20;;
15412;SDS011;7805;49.554;7.632;2022-09-01T01:14:16;7.03;;;6.33;;
15412;SDS011;7805;49.554;7.632;2022-09-01T01:16:44;8.20;;;6.63;;
15412;SDS011;7805;49.554;7.632;2022-09-01T01:30:47;7.13;;;6.43;;
15412;SDS011;7805;49.554;7.632;2022-09-01T01:33:20;7.50;;;6.80;;
15412;SDS011;7805;49.554;7.632;2022-09-01T01:35:52;6.77;;;6.17;;
15412;SDS011;7805;49.554;7.632;2022-09-01T01:38:21;8.23;;;6.73;;
15412;SDS011;7805;49.554;7.632;2022-09-01T01:40:48;8.97;;;7.07;;
15412;SDS011;7805;49.554;7.632;2022-09-01T01:43:15;6.57;;;6.07;;
15412;SDS011;7805;49.554;7.632;2022-09-01T01:45:44;6.57;;;5.97;;
15412;SDS011;7805;49.554;7.632;2022-09-01T01:48:13;6.20;;;5.70;;
15412;SDS011;7805;49.554;7.632;2022-09-01T01:50:39;6.70;;;6.20;;
15412;SDS011;7805;49.554;7.632;2022-09-01T01:53:08;6.87;;;6.27;;
15412;SDS011;7805;49.554;7.632;2022-09-01T01:55:35;6.73;;;6.27;;
15412;SDS011;7805;49.554;7.632;2022-09-01T01:58:01;7.80;;;7.10;;
15412;SDS011;7805;49.554;7.632;2022-09-01T02:00:30;10.00;;;7.97;;
15412;SDS011;7805;49.554;7.632;2022-09-01T02:02:59;7.37;;;6.60;;
15412;SDS011;7805;49.554;7.632;2022-09-01T02:05:26;8.70;;;7.20;;
15412;SDS011;7805;49.554;7.632;2022-09-01T02:07:54;6.80;;;6.30;;
15412;SDS011;7805;49.554;7.632;2022-09-01T02:10:24;7.20;;;6.43;;
15412;SDS011;7805;49.554;7.632;2022-09-01T02:12:53;7.43;;;6.40;;
15412;SDS011;7805;49.554;7.632;2022-09-01T02:15:19;7.80;;;7.03;;
15412;SDS011;7805;49.554;7.632;2022-09-01T02:17:45;8.93;;;6.70;;
15412;SDS011;7805;49.554;7.632;2022-09-01T02:20:11;7.30;;;6.70;;
15412;SDS011;7805;49.554;7.632;2022-09-01T02:22:40;6.93;;;6.33;;
15412;SDS011;7805;49.554;7.632;2022-09-01T02:25:08;7.53;;;6.70;;
15412;SDS011;7805;49.554;7.632;2022-09-01T02:27:34;9.77;;;6.43;;
15412;SDS011;7805;49.554;7.632;2022-09-01T02:30:03;7.87;;;7.17;;
15412;SDS011;7805;49.554;7.632;2022-09-01T02:32:34;6.87;;;6.37;;
15412;SDS011;7805;49.554;7.632;2022-09-01T02:34:59;8.73;;;7.27;;
15412;SDS011;7805;49.554;7.632;2022-09-01T02:37:25;7.57;;;6.43;;
15412;SDS011;7805;49.554;7.632;2022-09-01T02:39:51;7.97;;;7.13;;
15412;SDS011;7805;49.554;7.632;2022-09-01T02:42:18;7.80;;;7.20;;
15412;SDS011;7805;49.554;7.632;2022-09-01T02:44:52;8.87;;;7.40;;
15412;SDS011;7805;49.554;7.632;2022-09-01T02:47:18;7.30;;;6.60;;
15412;SDS011;7805;49.554;7.632;2022-09-01T02:49:44;7.83;;;7.03;;
15412;SDS011;7805;49.554;7.632;2022-09-01T02:52:10;7.90;;;7.10;;
15412;SDS011;7805;49.554;7.632;2022-09-01T02:54:40;8.17;;;6.90;;
15412;SDS011;7805;49.554;7.632;2022-09-01T02:57:09;7.73;;;7.00;;
15412;SDS011;7805;49.554;7.632;2022-09-01T02:59:35;11.67;;;7.70;;
15412;SDS011;7805;49.554;7.632;2022-09-01T03:02:01;7.77;;;6.80;;
15412;SDS011;7805;49.554;7.632;2022-09-01T03:04:28;7.37;;;6.73;;
15412;SDS011;7805;49.554;7.632;2022-09-01T03:06:57;7.20;;;6.53;;
15412;SDS011;7805;49.554;7.632;2022-09-01T03:09:23;6.83;;;6.33;;
15412;SDS011;7805;49.554;7.632;2022-09-01T03:11:49;7.93;;;6.40;;
15412;SDS011;7805;49.554;7.632;2022-09-01T03:14:16;8.53;;;6.40;;
15412;SDS011;7805;49.554;7.632;2022-09-01T03:16:42;6.17;;;5.67;;
15412;SDS011;7805;49.554;7.632;2022-09-01T03:19:08;6.90;;;6.20;;
15412;SDS011;7805;49.554;7.632;2022-09-01T03:21:36;7.53;;;6.90;;
15412;SDS011;7805;49.554;7.632;2022-09-01T03:24:05;7.33;;;6.57;;
15412;SDS011;7805;49.554;7.632;2022-09-01T03:26:33;8.50;;;7.27;;
15412;SDS011;7805;49.554;7.632;2022-09-01T03:29:00;7.80;;;7.07;;
15412;SDS011;7805;49.554;7.632;2022-09-01T03:31:27;7.33;;;6.50;;
15412;SDS011;7805;49.554;7.632;2022-09-01T03:33:54;7.57;;;6.83;;
15412;SDS011;7805;49.554;7.632;2022-09-01T03:36:20;9.00;;;6.67;;
15412;SDS011;7805;49.554;7.632;2022-09-01T03:38:50;7.50;;;6.90;;
15412;SDS011;7805;49.554;7.632;2022-09-01T03:41:19;6.40;;;5.87;;
15412;SDS011;7805;49.554;7.632;2022-09-01T03:43:49;7.30;;;6.70;;
15412;SDS011;7805;49.554;7.632;2022-09-01T03:46:19;7.43;;;6.47;;
15412;SDS011;7805;49.554;7.632;2022-09-01T03:48:49;20.53;;;6.60;;
15412;SDS011;7805;49.554;7.632;2022-09-01T03:51:18;8.03;;;6.93;;
15412;SDS011;7805;49.554;7.632;2022-09-01T03:53:46;7.57;;;6.97;;
15412;SDS011;7805;49.554;7.632;2022-09-01T03:56:12;7.37;;;6.67;;
15412;SDS011;7805;49.554;7.632;2022-09-01T03:58:39;6.63;;;5.80;;
15412;SDS011;7805;49.554;7.632;2022-09-01T04:01:08;6.70;;;5.93;;
15412;SDS011;7805;49.554;7.632;2022-09-01T04:03:35;5.87;;;5.47;;
15412;SDS011;7805;49.554;7.632;2022-09-01T04:06:03;6.67;;;6.10;;
15412;SDS011;7805;49.554;7.632;2022-09-01T04:08:31;7.17;;;6.47;;
15412;SDS011;7805;49.554;7.632;2022-09-01T04:10:58;7.67;;;6.97;;
15412;SDS011;7805;49.554;7.632;2022-09-01T04:13:27;8.00;;;6.10;;
15412;SDS011;7805;49.554;7.632;2022-09-01T04:15:56;5.77;;;5.37;;
15412;SDS011;7805;49.554;7.632;2022-09-01T04:18:22;5.63;;;5.13;;
15412;SDS011;7805;49.554;7.632;2022-09-01T04:20:57;5.53;;;5.07;;
15412;SDS011;7805;49.554;7.632;2022-09-01T04:23:30;5.70;;;5.30;;
15412;SDS011;7805;49.554;7.632;2022-09-01T04:26:02;6.77;;;6.10;;
15412;SDS011;7805;49.554;7.632;2022-09-01T04:28:39;9.40;;;6.07;;
15412;SDS011;7805;49.554;7.632;2022-09-01T04:31:10;6.53;;;5.93;;
15412;SDS011;7805;49.554;7.632;2022-09-01T04:33:39;7.43;;;5.67;;
15412;SDS011;7805;49.554;7.632;2022-09-01T04:36:06;6.73;;;6.13;;
15412;SDS011;7805;49.554;7.632;2022-09-01T04:38:51;7.13;;;6.27;;
15412;SDS011;7805;49.554;7.632;2022-09-01T04:41:20;8.60;;;6.10;;
15412;SDS011;7805;49.554;7.632;2022-09-01T04:43:47;7.70;;;6.57;;
15412;SDS011;7805;49.554;7.632;2022-09-01T04:46:16;7.87;;;6.13;;
15412;SDS011;7805;49.554;7.632;2022-09-01T04:48:45;8.20;;;6.43;;
15412;SDS011;7805;49.554;7.632;2022-09-01T04:51:12;8.63;;;5.47;;
15412;SDS011;7805;49.554;7.632;2022-09-01T04:53:39;6.40;;;5.90;;
15412;SDS011;7805;49.554;7.632;2022-09-01T04:56:12;5.60;;;5.10;;
15412;SDS011;7805;49.554;7.632;2022-09-01T04:58:39;5.20;;;4.80;;
15412;SDS011;7805;49.554;7.632;2022-09-01T05:01:15;6.17;;;4.67;;
15412;SDS011;7805;49.554;7.632;2022-09-01T05:03:42;6.17;;;5.37;;
15412;SDS011;7805;49.554;7.632;2022-09-01T05:06:15;5.00;;;4.60;;
15412;SDS011;7805;49.554;7.632;2022-09-01T05:08:42;6.23;;;5.20;;
15412;SDS011;7805;49.554;7.632;2022-09-01T05:11:12;6.23;;;5.73;;
15412;SDS011;7805;49.554;7.632;2022-09-01T05:13:40;7.33;;;5.60;;
15412;SDS011;7805;49.554;7.632;2022-09-01T05:16:08;6.70;;;6.10;;
15412;SDS011;7805;49.554;7.632;2022-09-01T05:18:37;5.87;;;5.17;;
15412;SDS011;7805;49.554;7.632;2022-09-01T05:21:05;5.87;;;5.37;;
15412;SDS011;7805;49.554;7.632;2022-09-01T05:23:36;8.53;;;6.40;;
15412;SDS011;7805;49.554;7.632;2022-09-01T05:26:04;6.30;;;5.20;;
15412;SDS011;7805;49.554;7.632;2022-09-01T05:28:41;6.30;;;5.80;;
15412;SDS011;7805;49.554;7.632;2022-09-01T05:31:07;6.37;;;5.80;;
15412;SDS011;7805;49.554;7.632;2022-09-01T05:33:34;7.57;;;6.50;;
15412;SDS011;7805;49.554;7.632;2022-09-01T05:36:01;5.87;;;5.27;;
15412;SDS011;7805;49.554;7.632;2022-09-01T05:38:32;6.10;;;5.33;;
15412;SDS011;7805;49.554;7.632;2022-09-01T05:40:59;6.50;;;5.70;;
15412;SDS011;7805;49.554;7.632;2022-09-01T05:43:27;6.13;;;5.63;;
15412;SDS011;7805;49.554;7.632;2022-09-01T05:45:55;5.53;;;5.03;;
15412;SDS011;7805;49.554;7.632;2022-09-01T05:48:22;6.50;;;5.87;;
15412;SDS011;7805;49.554;7.632;2022-09-01T05:50:49;6.67;;;5.87;;
15412;SDS011;7805;49.554;7.632;2022-09-01T05:53:16;8.03;;;6.43;;
15412;SDS011;7805;49.554;7.632;2022-09-01T05:55:42;6.30;;;5.70;;
15412;SDS011;7805;49.554;7.632;2022-09-01T05:58:10;6.30;;;5.80;;
15412;SDS011;7805;49.554;7.632;2022-09-01T06:00:42;7.03;;;6.33;;
15412;SDS011;7805;49.554;7.632;2022-09-01T06:03:11;6.20;;;5.70;;
15412;SDS011;7805;49.554;7.632;2022-09-01T06:05:38;6.27;;;5.50;;
15412;SDS011;7805;49.554;7.632;2022-09-01T06:08:05;7.33;;;5.33;;
15412;SDS011;7805;49.554;7.632;2022-09-01T06:10:35;5.63;;;5.00;;
15412;SDS011;7805;49.554;7.632;2022-09-01T06:13:03;4.47;;;4.07;;
15412;SDS011;7805;49.554;7.632;2022-09-01T06:15:33;4.70;;;4.20;;
15412;SDS011;7805;49.554;7.632;2022-09-01T06:18:03;4.67;;;4.23;;
15412;SDS011;7805;49.554;7.632;2022-09-01T06:20:33;4.60;;;4.20;;
15412;SDS011;7805;49.554;7.632;2022-09-01T06:23:03;4.67;;;3.67;;
15412;SDS011;7805;49.554;7.632;2022-09-01T06:25:28;4.90;;;4.53;;
15412;SDS011;7805;49.554;7.632;2022-09-01T06:27:54;5.83;;;4.00;;
15412;SDS011;7805;49.554;7.632;2022-09-01T06:30:21;4.23;;;3.83;;
15412;SDS011;7805;49.554;7.632;2022-09-01T06:32:50;4.47;;;3.30;;
15412;SDS011;7805;49.554;7.632;2022-09-01T06:35:17;3.63;;;3.10;;
15412;SDS011;7805;49.554;7.632;2022-09-01T06:37:44;4.57;;;3.67;;
15412;SDS011;7805;49.554;7.632;2022-09-01T06:40:11;3.30;;;3.10;;
15412;SDS011;7805;49.554;7.632;2022-09-01T06:42:45;4.40;;;3.23;;
15412;SDS011;7805;49.554;7.632;2022-09-01T06:45:13;3.30;;;3.10;;
15412;SDS011;7805;49.554;7.632;2022-09-01T06:47:41;5.03;;;3.67;;
15412;SDS011;7805;49.554;7.632;2022-09-01T06:50:11;3.90;;;2.90;;
15412;SDS011;7805;49.554;7.632;2022-09-01T06:52:42;4.20;;;3.30;;
15412;SDS011;7805;49.554;7.632;2022-09-01T06:55:11;2.90;;;2.70;;
15412;SDS011;7805;49.554;7.632;2022-09-01T06:57:39;5.13;;;3.00;;
15412;SDS011;7805;49.554;7.632;2022-09-01T07:00:07;3.20;;;2.20;;
15412;SDS011;7805;49.554;7.632;2022-09-01T07:02:45;2.90;;;2.63;;
15412;SDS011;7805;49.554;7.632;2022-09-01T07:05:15;2.90;;;2.70;;
15412;SDS011;7805;49.554;7.632;2022-09-01T07:07:48;3.83;;;2.70;;
15412;SDS011;7805;49.554;7.632;2022-09-01T07:10:19;2.40;;;2.30;;
15412;SDS011;7805;49.554;7.632;2022-09-01T07:12:51;3.10;;;2.90;;
15412;SDS011;7805;49.554;7.632;2022-09-01T07:15:20;3.00;;;2.70;;
15412;SDS011;7805;49.554;7.632;2022-09-01T07:17:48;3.20;;;2.60;;
15412;SDS011;7805;49.554;7.632;2022-09-01T07:20:16;3.53;;;3.20;;
15412;SDS011;7805;49.554;7.632;2022-09-01T07:22:45;2.70;;;2.50;;
15412;SDS011;7805;49.554;7.632;2022-09-01T07:25:14;3.07;;;2.70;;
15412;SDS011;7805;49.554;7.632;2022-09-01T07:27:41;2.37;;;2.27;;
15412;SDS011;7805;49.554;7.632;2022-09-01T07:30:18;2.80;;;2.60;;
15412;SDS011;7805;49.554;7.632;2022-09-01T07:32:45;4.73;;;2.47;;
15412;SDS011;7805;49.554;7.632;2022-09-01T07:35:14;2.40;;;2.20;;
15412;SDS011;7805;49.554;7.632;2022-09-01T07:37:42;2.60;;;2.40;;
15412;SDS011;7805;49.554;7.632;2022-09-01T07:40:09;5.63;;;2.50;;
15412;SDS011;7805;49.554;7.632;2022-09-01T07:42:37;3.20;;;2.23;;
15412;SDS011;7805;49.554;7.632;2022-09-01T07:45:08;3.30;;;2.43;;
15412;SDS011;7805;49.554;7.632;2022-09-01T07:47:35;4.67;;;2.87;;
15412;SDS011;7805;49.554;7.632;2022-09-01T07:50:06;2.20;;;2.07;;
15412;SDS011;7805;49.554;7.632;2022-09-01T07:52:34;2.47;;;2.37;;
15412;SDS011;7805;49.554;7.632;2022-09-01T07:55:10;2.83;;;2.60;;
15412;SDS011;7805;49.554;7.632;2022-09-01T07:57:40;3.67;;;2.33;;
15412;SDS011;7805;49.554;7.632;2022-09-01T08:00:08;3.20;;;2.90;;
15412;SDS011;7805;49.554;7.632;2022-09-01T08:02:35;4.67;;;3.00;;
15412;SDS011;7805;49.554;7.632;2022-09-01T08:05:07;3.37;;;2.60;;
15412;SDS011;7805;49.554;7.632;2022-09-01T08:07:34;3.27;;;3.00;;
15412;SDS011;7805;49.554;7.632;2022-09-01T08:10:01;3.47;;;2.90;;
15412;SDS011;7805;49.554;7.632;2022-09-01T08:12:31;2.93;;;2.63;;
15412;SDS011;7805;49.554;7.632;2022-09-01T08:14:58;4.47;;;3.50;;
15412;SDS011;7805;49.554;7.632;2022-09-01T08:17:26;5.47;;;3.07;;
15412;SDS011;7805;49.554;7.632;2022-09-01T08:19:52;4.90;;;3.20;;
15412;SDS011;7805;49.554;7.632;2022-09-01T08:22:18;2.97;;;2.77;;
15412;SDS011;7805;49.554;7.632;2022-09-01T08:24:47;3.17;;;2.47;;
15412;SDS011;7805;49.554;7.632;2022-09-01T08:27:13;4.73;;;2.60;;
15412;SDS011;7805;49.554;7.632;2022-09-01T08:29:39;2.63;;;2.43;;
15412;SDS011;7805;49.554;7.632;2022-09-01T08:32:04;3.00;;;2.67;;
15412;SDS011;7805;49.554;7.632;2022-09-01T08:34:31;2.73;;;2.53;;
15412;SDS011;7805;49.554;7.632;2022-09-01T08:36:57;2.63;;;2.43;;
15412;SDS011;7805;49.554;7.632;2022-09-01T08:39:23;4.10;;;2.60;;
15412;SDS011;7805;49.554;7.632;2022-09-01T08:42:10;3.10;;;2.40;;
15412;SDS011;7805;49.554;7.632;2022-09-01T08:47:21;2.75;;;2.55;;
15412;SDS011;7805;49.554;7.632;2022-09-01T08:49:47;3.20;;;2.90;;
15412;SDS011;7805;49.554;7.632;2022-09-01T08:52:29;3.05;;;2.75;;
15412;SDS011;7805;49.554;7.632;2022-09-01T08:55:16;5.13;;;4.63;;
15412;SDS011;7805;49.554;7.632;2022-09-01T08:57:53;4.75;;;4.35;;
15412;SDS011;7805;49.554;7.632;2022-09-01T09:00:23;6.68;;;4.80;;
15412;SDS011;7805;49.554;7.632;2022-09-01T09:05:46;4.40;;;4.05;;
15412;SDS011;7805;49.554;7.632;2022-09-01T09:08:37;5.28;;;4.03;;
15412;SDS011;7805;49.554;7.632;2022-09-01T09:11:17;4.20;;;3.90;;
15412;SDS011;7805;49.554;7.632;2022-09-01T09:16:49;6.10;;;5.45;;
15412;SDS011;7805;49.554;7.632;2022-09-01T09:21:52;4.28;;;3.97;;
15412;SDS011;7805;49.554;7.632;2022-09-01T09:29:45;4.60;;;4.07;;
15412;SDS011;7805;49.554;7.632;2022-09-01T09:32:16;4.35;;;3.95;;
15412;SDS011;7805;49.554;7.632;2022-09-01T09:34:42;3.97;;;3.65;;
15412;SDS011;7805;49.554;7.632;2022-09-01T09:42:35;4.88;;;4.20;;
15412;SDS011;7805;49.554;7.632;2022-09-01T09:45:20;4.78;;;3.90;;
15412;SDS011;7805;49.554;7.632;2022-09-01T09:47:51;4.38;;;4.07;;
15412;SDS011;7805;49.554;7.632;2022-09-01T09:50:20;4.07;;;3.78;;
15412;SDS011;7805;49.554;7.632;2022-09-01T09:58:19;5.65;;;4.90;;
15412;SDS011;7805;49.554;7.632;2022-09-01T10:01:04;4.18;;;3.80;;
15412;SDS011;7805;49.554;7.632;2022-09-01T10:03:44;4.35;;;3.92;;
15412;SDS011;7805;49.554;7.632;2022-09-01T10:06:32;4.10;;;3.80;;
15412;SDS011;7805;49.554;7.632;2022-09-01T10:08:59;5.88;;;3.78;;
15412;SDS011;7805;49.554;7.632;2022-09-01T10:11:29;4.20;;;3.90;;
15412;SDS011;7805;49.554;7.632;2022-09-01T10:14:04;4.22;;;3.80;;
15412;SDS011;7805;49.554;7.632;2022-09-01T10:16:33;7.18;;;3.95;;
15412;SDS011;7805;49.554;7.632;2022-09-01T10:19:03;8.43;;;4.03;;
15412;SDS011;7805;49.554;7.632;2022-09-01T10:21:39;6.38;;;4.40;;
15412;SDS011;7805;49.554;7.632;2022-09-01T10:26:47;3.60;;;3.30;;
15412;SDS011;7805;49.554;7.632;2022-09-01T10:29:24;6.15;;;3.67;;
15412;SDS011;7805;49.554;7.632;2022-09-01T10:31:57;4.35;;;3.95;;
15412;SDS011;7805;49.554;7.632;2022-09-01T10:34:24;3.72;;;3.42;;
15412;SDS011;7805;49.554;7.632;2022-09-01T10:36:56;3.70;;;3.40;;
15412;SDS011;7805;49.554;7.632;2022-09-01T10:39:23;4.38;;;3.35;;
15412;SDS011;7805;49.554;7.632;2022-09-01T10:46:59;3.75;;;3.22;;
15412;SDS011;7805;49.554;7.632;2022-09-01T10:51:56;3.60;;;3.33;;
15412;SDS011;7805;49.554;7.632;2022-09-01T10:57:06;3.13;;;2.92;;
15412;SDS011;7805;49.554;7.632;2022-09-01T10:59:33;4.28;;;3.60;;
15412;SDS011;7805;49.554;7.632;2022-09-01T11:05:08;4.40;;;4.00;;
15412;SDS011;7805;49.554;7.632;2022-09-01T11:15:48;3.92;;;3.63;;
15412;SDS011;7805;49.554;7.632;2022-09-01T11:18:25;7.47;;;4.40;;
15412;SDS011;7805;49.554;7.632;2022-09-01T11:20:53;4.30;;;3.90;;
15412;SDS011;7805;49.554;7.632;2022-09-01T11:33:25;4.20;;;3.80;;
15412;SDS011;7805;49.554;7.632;2022-09-01T11:41:24;4.57;;;3.47;;
15412;SDS011;7805;49.554;7.632;2022-09-01T11:43:55;3.90;;;3.50;;
15412;SDS011;7805;49.554;7.632;2022-09-01T11:46:32;4.10;;;3.70;;
15412;SDS011;7805;49.554;7.632;2022-09-01T11:49:02;5.32;;;4.38;;
15412;SDS011;7805;49.554;7.632;2022-09-01T11:51:43;3.78;;;3.40;;
15412;SDS011;7805;49.554;7.632;2022-09-01T11:54:11;4.22;;;3.75;;
15412;SDS011;7805;49.554;7.632;2022-09-01T11:56:38;4.28;;;3.88;;
15412;SDS011;7805;49.554;7.632;2022-09-01T11:59:04;4.95;;;4.20;;
15412;SDS011;7805;49.554;7.632;2022-09-01T12:01:31;3.83;;;3.53;;
15412;SDS011;7805;49.554;7.632;2022-09-01T12:04:16;4.45;;;3.25;;
15412;SDS011;7805;49.554;7.632;2022-09-01T12:06:50;4.05;;;3.70;;
15412;SDS011;7805;49.554;7.632;2022-09-01T12:09:19;3.85;;;3.58;;
15412;SDS011;7805;49.554;7.632;2022-09-01T12:11:45;4.15;;;3.70;;
15412;SDS011;7805;49.554;7.632;2022-09-01T12:14:10;3.65;;;3.35;;
15412;SDS011;7805;49.554;7.632;2022-09-01T12:16:47;4.53;;;4.13;;
15412;SDS011;7805;49.554;7.632;2022-09-01T12:19:24;4.45;;;4.05;;
15412;SDS011;7805;49.554;7.632;2022-09-01T12:21:58;4.35;;;4.05;;
15412;SDS011;7805;49.554;7.632;2022-09-01T12:24:45;4.75;;;4.07;;
15412;SDS011;7805;49.554;7.632;2022-09-01T12:27:12;5.25;;;4.43;;
15412;SDS011;7805;49.554;7.632;2022-09-01T12:29:38;4.63;;;4.30;;
15412;SDS011;7805;49.554;7.632;2022-09-01T12:32:04;4.20;;;3.78;;
15412;SDS011;7805;49.554;7.632;2022-09-01T12:34:44;4.70;;;4.20;;
15412;SDS011;7805;49.554;7.632;2022-09-01T12:39:44;4.22;;;3.80;;
15412;SDS011;7805;49.554;7.632;2022-09-01T12:49:58;4.47;;;3.35;;
15412;SDS011;7805;49.554;7.632;2022-09-01T12:52:29;5.60;;;4.10;;
15412;SDS011;7805;49.554;7.632;2022-09-01T12:57:32;4.55;;;3.10;;
15412;SDS011;7805;49.554;7.632;2022-09-01T13:02:37;3.80;;;3.30;;
15412;SDS011;7805;49.554;7.632;2022-09-01T13:07:54;3.25;;;3.00;;
15412;SDS011;7805;49.554;7.632;2022-09-01T13:10:25;3.67;;;3.30;;
15412;SDS011;7805;49.554;7.632;2022-09-01T13:12:54;3.25;;;2.95;;
15412;SDS011;7805;49.554;7.632;2022-09-01T13:15:22;4.82;;;3.05;;
15412;SDS011;7805;49.554;7.632;2022-09-01T13:17:49;3.47;;;3.25;;
15412;SDS011;7805;49.554;7.632;2022-09-01T13:20:16;3.10;;;2.90;;
15412;SDS011;7805;49.554;7.632;2022-09-01T13:22:42;5.40;;;3.38;;
15412;SDS011;7805;49.554;7.632;2022-09-01T13:25:09;3.30;;;3.10;;
15412;SDS011;7805;49.554;7.632;2022-09-01T13:27:37;3.45;;;3.22;;
15412;SDS011;7805;49.554;7.632;2022-09-01T13:30:08;3.67;;;2.90;;
15412;SDS011;7805;49.554;7.632;2022-09-01T13:32:35;2.95;;;2.63;;
15412;SDS011;7805;49.554;7.632;2022-09-01T13:35:01;3.13;;;2.92;;
15412;SDS011;7805;49.554;7.632;2022-09-01T13:37:26;4.55;;;2.70;;
15412;SDS011;7805;49.554;7.632;2022-09-01T13:39:52;4.25;;;2.90;;
15412;SDS011;7805;49.554;7.632;2022-09-01T13:42:18;5.25;;;2.70;;
15412;SDS011;7805;49.554;7.632;2022-09-01T13:44:43;4.45;;;4.05;;
15412;SDS011;7805;49.554;7.632;2022-09-01T13:47:11;2.72;;;2.53;;
15412;SDS011;7805;49.554;7.632;2022-09-01T13:49:36;3.40;;;3.03;;
15412;SDS011;7805;49.554;7.632;2022-09-01T13:52:02;3.75;;;3.10;;
15412;SDS011;7805;49.554;7.632;2022-09-01T13:54:27;3.72;;;3.40;;
15412;SDS011;7805;49.554;7.632;2022-09-01T13:56:53;4.00;;;2.80;;
15412;SDS011;7805;49.554;7.632;2022-09-01T13:59:18;2.95;;;2.80;;
15412;SDS011;7805;49.554;7.632;2022-09-01T14:01:44;3.63;;;3.33;;
15412;SDS011;7805;49.554;7.632;2022-09-01T14:04:10;3.20;;;3.00;;
15412;SDS011;7805;49.554;7.632;2022-09-01T14:06:39;4.60;;;2.92;;
15412;SDS011;7805;49.554;7.632;2022-09-01T14:09:08;2.90;;;2.70;;
15412;SDS011;7805;49.554;7.632;2022-09-01T14:11:37;2.75;;;2.65;;
15412;SDS011;7805;49.554;7.632;2022-09-01T14:14:03;3.10;;;2.90;;
15412;SDS011;7805;49.554;7.632;2022-09-01T14:16:29;4.25;;;3.15;;
15412;SDS011;7805;49.554;7.632;2022-09-01T14:18:55;3.20;;;3.00;;
15412;SDS011;7805;49.554;7.632;2022-09-01T14:21:21;3.20;;;3.00;;
15412;SDS011;7805;49.554;7.632;2022-09-01T14:23:46;3.22;;;3.03;;
15412;SDS011;7805;49.554;7.632;2022-09-01T14:26:14;3.10;;;2.80;;
15412;SDS011;7805;49.554;7.632;2022-09-01T14:28:40;3.20;;;2.75;;
15412;SDS011;7805;49.554;7.632;2022-09-01T14:31:12;4.53;;;2.75;;
15412;SDS011;7805;49.554;7.632;2022-09-01T14:33:41;3.55;;;3.22;;
15412;SDS011;7805;49.554;7.632;2022-09-01T14:36:14;4.75;;;3.42;;
15412;SDS011;7805;49.554;7.632;2022-09-01T14:38:41;3.17;;;2.85;;
15412;SDS011;7805;49.554;7.632;2022-09-01T14:41:07;3.70;;;2.60;;
15412;SDS011;7805;49.554;7.632;2022-09-01T14:43:33;4.22;;;2.45;;
15412;SDS011;7805;49.554;7.632;2022-09-01T14:46:02;3.10;;;2.90;;
15412;SDS011;7805;49.554;7.632;2022-09-01T14:48:33;4.15;;;3.80;;
15412;SDS011;7805;49.554;7.632;2022-09-01T14:50:59;4.55;;;3.17;;
15412;SDS011;7805;49.554;7.632;2022-09-01T14:53:26;3.40;;;3.10;;
15412;SDS011;7805;49.554;7.632;2022-09-01T14:55:54;3.38;;;3.08;;
15412;SDS011;7805;49.554;7.632;2022-09-01T14:58:24;2.40;;;2.30;;
15412;SDS011;7805;49.554;7.632;2022-09-01T15:00:51;2.60;;;2.40;;
15412;SDS011;7805;49.554;7.632;2022-09-01T15:03:20;3.13;;;2.80;;
15412;SDS011;7805;49.554;7.632;2022-09-01T15:05:46;2.45;;;2.20;;
15412;SDS011;7805;49.554;7.632;2022-09-01T15:08:14;3.30;;;2.88;;
15412;SDS011;7805;49.554;7.632;2022-09-01T15:10:39;3.40;;;3.10;;
15412;SDS011;7805;49.554;7.632;2022-09-01T15:13:05;3.13;;;2.92;;
15412;SDS011;7805;49.554;7.632;2022-09-01T15:15:31;3.30;;;3.10;;
15412;SDS011;7805;49.554;7.632;2022-09-01T15:17:57;3.15;;;2.95;;
15412;SDS011;7805;49.554;7.632;2022-09-01T15:20:24;4.43;;;4.13;;
15412;SDS011;7805;49.554;7.632;2022-09-01T15:23:09;3.50;;;3.30;;
15412;SDS011;7805;49.554;7.632;2022-09-01T15:25:36;3.35;;;3.08;;
15412;SDS011;7805;49.554;7.632;2022-09-01T15:28:02;4.40;;;3.10;;
15412;SDS011;7805;49.554;7.632;2022-09-01T15:30:28;3.45;;;3.25;;
15412;SDS011;7805;49.554;7.632;2022-09-01T15:32:54;4.00;;;3.70;;
15412;SDS011;7805;49.554;7.632;2022-09-01T15:35:20;4.18;;;2.92;;
15412;SDS011;7805;49.554;7.632;2022-09-01T15:37:46;3.50;;;3.30;;
15412;SDS011;7805;49.554;7.632;2022-09-01T15:40:13;3.30;;;3.10;;
15412;SDS011;7805;49.554;7.632;2022-09-01T15:42:40;2.83;;;2.72;;
15412;SDS011;7805;49.554;7.632;2022-09-01T15:45:07;3.53;;;3.28;;
15412;SDS011;7805;49.554;7.632;2022-09-01T15:47:35;4.53;;;3.53;;
15412;SDS011;7805;49.554;7.632;2022-09-01T15:50:06;3.15;;;2.90;;
15412;SDS011;7805;49.554;7.632;2022-09-01T15:52:33;3.15;;;2.95;;
15412;SDS011;7805;49.554;7.632;2022-09-01T15:54:59;3.22;;;3.03;;
15412;SDS011;7805;49.554;7.632;2022-09-01T15:57:26;3.20;;;3.00;;
15412;SDS011;7805;49.554;7.632;2022-09-01T15:59:52;3.05;;;2.85;;
15412;SDS011;7805;49.554;7.632;2022-09-01T16:02:17;5.88;;;3.08;;
15412;SDS011;7805;49.554;7.632;2022-09-01T16:04:47;3.53;;;3.33;;
15412;SDS011;7805;49.554;7.632;2022-09-01T16:07:13;4.68;;;4.28;;
15412;SDS011;7805;49.554;7.632;2022-09-01T16:09:38;3.50;;;3.20;;
15412;SDS011;7805;49.554;7.632;2022-09-01T16:12:04;3.22;;;3.03;;
15412;SDS011;7805;49.554;7.632;2022-09-01T16:14:30;5.00;;;4.60;;
15412;SDS011;7805;49.554;7.632;2022-09-01T16:24:32;3.20;;;3.00;;
15412;SDS011;7805;49.554;7.632;2022-09-01T16:27:06;4.20;;;3.80;;
15412;SDS011;7805;49.554;7.632;2022-09-01T16:29:44;3.60;;;3.35;;
15412;SDS011;7805;49.554;7.632;2022-09-01T16:32:11;3.30;;;3.10;;
15412;SDS011;7805;49.554;7.632;2022-09-01T16:34:40;3.58;;;3.28;;
15412;SDS011;7805;49.554;7.632;2022-09-01T16:42:31;4.82;;;4.30;;
15412;SDS011;7805;49.554;7.632;2022-09-01T17:03:42;3.90;;;3.38;;
15412;SDS011;7805;49.554;7.632;2022-09-01T17:06:41;3.38;;;3.17;;
15412;SDS011;7805;49.554;7.632;2022-09-01T17:09:17;4.13;;;3.83;;
15412;SDS011;7805;49.554;7.632;2022-09-01T17:11:53;4.38;;;3.97;;
15412;SDS011;7805;49.554;7.632;2022-09-01T17:14:48;4.05;;;3.33;;
15412;SDS011;7805;49.554;7.632;2022-09-01T17:17:31;8.50;;;3.50;;
15412;SDS011;7805;49.554;7.632;2022-09-01T17:20:09;4.00;;;3.55;;
15412;SDS011;7805;49.554;7.632;2022-09-01T17:22:38;3.38;;;3.05;;